sensor_id;sensor_type;location;lat;lon;timestamp;P1;durP1;ratioP1;P2;durP2;ratioP2
29938;SDS011;16799;50.844;5.304;2023-04-01T00:00:11;6.20;;;1.50;;
29938;SDS011;16799;50.844;5.304;2023-04-01T00:02:38;2.30;;;1.60;;
29938;SDS011;16799;50.844;5.304;2023-04-01T00:05:03;9.23;;;1.67;;
29938;SDS011;16799;50.844;5.304;2023-04-01T00:07:30;2.70;;;0.83;;
29938;SDS011;16799;50.844;5.304;2023-04-01T00:09:56;2.57;;;1.30;;
29938;SDS011;16799;50.844;5.304;2023-04-01T00:12:22;6.60;;;2.00;;
29938;SDS011;16799;50.844;5.304;2023-04-01T00:14:50;6.37;;;1.23;;
29938;SDS011;16799;50.844;5.304;2023-04-01T00:17:15;5.90;;;1.50;;
29938;SDS011;16799;50.844;5.304;2023-04-01T00:19:41;2.70;;;1.13;;
29938;SDS011;16799;50.844;5.304;2023-04-01T00:22:07;6.33;;;1.80;;
29938;SDS011;16799;50.844;5.304;2023-04-01T00:24:36;7.03;;;2.20;;
29938;SDS011;16799;50.844;5.304;2023-04-01T00:27:02;4.80;;;1.87;;
29938;SDS011;16799;50.844;5.304;2023-04-01T00:29:28;1.50;;;1.40;;
29938;SDS011;16799;50.844;5.304;2023-04-01T00:31:56;2.47;;;1.00;;
29938;SDS011;16799;50.844;5.304;2023-04-01T00:34:22;3.20;;;1.60;;
29938;SDS011;16799;50.844;5.304;2023-04-01T00:36:48;4.50;;;1.30;;
29938;SDS011;16799;50.844;5.304;2023-04-01T00:39:15;4.97;;;2.17;;
29938;SDS011;16799;50.844;5.304;2023-04-01T00:41:41;2.50;;;1.67;;
29938;SDS011;16799;50.844;5.304;2023-04-01T00:46:52;8.03;;;2.30;;
29938;SDS011;16799;50.844;5.304;2023-04-01T00:49:19;3.90;;;1.33;;
29938;SDS011;16799;50.844;5.304;2023-04-01T00:51:48;6.80;;;1.80;;
29938;SDS011;16799;50.844;5.304;2023-04-01T00:54:17;4.53;;;1.27;;
29938;SDS011;16799;50.844;5.304;2023-04-01T00:56:45;3.63;;;1.30;;
29938;SDS011;16799;50.844;5.304;2023-04-01T00:59:16;6.90;;;2.30;;
29938;SDS011;16799;50.844;5.304;2023-04-01T01:01:47;5.20;;;1.47;;
29938;SDS011;16799;50.844;5.304;2023-04-01T01:04:26;6.30;;;1.60;;
29938;SDS011;16799;50.844;5.304;2023-04-01T01:07:42;7.60;;;1.90;;
29938;SDS011;16799;50.844;5.304;2023-04-01T01:12:15;3.13;;;1.50;;
29938;SDS011;16799;50.844;5.304;2023-04-01T01:19:56;1.17;;;1.00;;
29938;SDS011;16799;50.844;5.304;2023-04-01T01:23:23;2.00;;;1.03;;
29938;SDS011;16799;50.844;5.304;2023-04-01T01:26:01;6.63;;;1.30;;
29938;SDS011;16799;50.844;5.304;2023-04-01T01:34:20;3.37;;;1.33;;
29938;SDS011;16799;50.844;5.304;2023-04-01T01:36:51;1.70;;;1.17;;
29938;SDS011;16799;50.844;5.304;2023-04-01T01:39:20;6.33;;;1.30;;
29938;SDS011;16799;50.844;5.304;2023-04-01T01:41:52;3.13;;;0.90;;
29938;SDS011;16799;50.844;5.304;2023-04-01T01:44:20;2.00;;;0.80;;
29938;SDS011;16799;50.844;5.304;2023-04-01T01:46:47;1.47;;;0.70;;
29938;SDS011;16799;50.844;5.304;2023-04-01T01:49:13;10.40;;;1.10;;
29938;SDS011;16799;50.844;5.304;2023-04-01T01:51:40;4.53;;;0.80;;
29938;SDS011;16799;50.844;5.304;2023-04-01T01:54:11;13.43;;;2.93;;
29938;SDS011;16799;50.844;5.304;2023-04-01T01:56:38;5.20;;;1.07;;
29938;SDS011;16799;50.844;5.304;2023-04-01T01:59:07;2.70;;;1.00;;
29938;SDS011;16799;50.844;5.304;2023-04-01T02:01:35;2.70;;;1.40;;
29938;SDS011;16799;50.844;5.304;2023-04-01T02:04:06;1.10;;;1.00;;
29938;SDS011;16799;50.844;5.304;2023-04-01T02:06:35;1.23;;;1.00;;
29938;SDS011;16799;50.844;5.304;2023-04-01T02:09:05;2.93;;;1.33;;
29938;SDS011;16799;50.844;5.304;2023-04-01T02:11:37;2.40;;;0.83;;
29938;SDS011;16799;50.844;5.304;2023-04-01T02:14:19;0.60;;;0.60;;
29938;SDS011;16799;50.844;5.304;2023-04-01T02:16:55;3.10;;;0.70;;
29938;SDS011;16799;50.844;5.304;2023-04-01T02:19:29;1.73;;;0.93;;
29938;SDS011;16799;50.844;5.304;2023-04-01T02:22:00;1.50;;;1.07;;
29938;SDS011;16799;50.844;5.304;2023-04-01T02:24:29;4.40;;;0.90;;
29938;SDS011;16799;50.844;5.304;2023-04-01T02:26:56;2.30;;;0.70;;
29938;SDS011;16799;50.844;5.304;2023-04-01T02:29:23;4.07;;;1.10;;
29938;SDS011;16799;50.844;5.304;2023-04-01T02:31:50;1.00;;;1.00;;
29938;SDS011;16799;50.844;5.304;2023-04-01T02:34:18;2.60;;;0.90;;
29938;SDS011;16799;50.844;5.304;2023-04-01T02:36:44;1.67;;;1.17;;
29938;SDS011;16799;50.844;5.304;2023-04-01T02:39:10;0.73;;;0.73;;
29938;SDS011;16799;50.844;5.304;2023-04-01T02:41:43;5.73;;;1.10;;
29938;SDS011;16799;50.844;5.304;2023-04-01T02:44:11;5.20;;;0.80;;
29938;SDS011;16799;50.844;5.304;2023-04-01T02:46:38;2.53;;;1.00;;
29938;SDS011;16799;50.844;5.304;2023-04-01T02:49:04;6.43;;;2.73;;
29938;SDS011;16799;50.844;5.304;2023-04-01T02:51:30;1.40;;;0.90;;
29938;SDS011;16799;50.844;5.304;2023-04-01T02:53:56;3.17;;;2.33;;
29938;SDS011;16799;50.844;5.304;2023-04-01T02:56:22;1.00;;;1.00;;
29938;SDS011;16799;50.844;5.304;2023-04-01T02:58:48;3.30;;;1.90;;
29938;SDS011;16799;50.844;5.304;2023-04-01T03:01:13;2.30;;;2.10;;
29938;SDS011;16799;50.844;5.304;2023-04-01T03:03:39;6.33;;;2.33;;
29938;SDS011;16799;50.844;5.304;2023-04-01T03:06:06;5.27;;;1.80;;
29938;SDS011;16799;50.844;5.304;2023-04-01T03:08:33;1.87;;;1.70;;
29938;SDS011;16799;50.844;5.304;2023-04-01T03:10:59;3.50;;;2.27;;
29938;SDS011;16799;50.844;5.304;2023-04-01T03:13:25;9.93;;;2.83;;
29938;SDS011;16799;50.844;5.304;2023-04-01T03:15:51;2.87;;;2.57;;
29938;SDS011;16799;50.844;5.304;2023-04-01T03:18:17;5.47;;;4.07;;
29938;SDS011;16799;50.844;5.304;2023-04-01T03:20:42;3.73;;;3.07;;
29938;SDS011;16799;50.844;5.304;2023-04-01T03:23:08;4.83;;;3.10;;
29938;SDS011;16799;50.844;5.304;2023-04-01T03:25:35;4.90;;;4.03;;
29938;SDS011;16799;50.844;5.304;2023-04-01T03:28:00;3.40;;;2.00;;
29938;SDS011;16799;50.844;5.304;2023-04-01T03:30:27;3.10;;;2.40;;
29938;SDS011;16799;50.844;5.304;2023-04-01T03:32:54;1.97;;;1.87;;
29938;SDS011;16799;50.844;5.304;2023-04-01T03:35:20;7.07;;;2.07;;
29938;SDS011;16799;50.844;5.304;2023-04-01T03:37:46;2.53;;;2.33;;
29938;SDS011;16799;50.844;5.304;2023-04-01T03:40:12;2.67;;;2.17;;
29938;SDS011;16799;50.844;5.304;2023-04-01T03:42:37;2.00;;;1.83;;
29938;SDS011;16799;50.844;5.304;2023-04-01T03:45:03;5.33;;;2.07;;
29938;SDS011;16799;50.844;5.304;2023-04-01T03:47:30;2.30;;;2.10;;
29938;SDS011;16799;50.844;5.304;2023-04-01T03:49:55;3.10;;;2.83;;
29938;SDS011;16799;50.844;5.304;2023-04-01T03:52:21;5.20;;;2.17;;
29938;SDS011;16799;50.844;5.304;2023-04-01T03:54:47;4.50;;;2.57;;
29938;SDS011;16799;50.844;5.304;2023-04-01T03:57:12;3.97;;;2.83;;
29938;SDS011;16799;50.844;5.304;2023-04-01T03:59:38;8.50;;;2.23;;
29938;SDS011;16799;50.844;5.304;2023-04-01T04:02:04;2.90;;;2.60;;
29938;SDS011;16799;50.844;5.304;2023-04-01T04:04:29;2.93;;;2.27;;
29938;SDS011;16799;50.844;5.304;2023-04-01T04:06:55;3.30;;;3.00;;
29938;SDS011;16799;50.844;5.304;2023-04-01T04:09:21;2.80;;;2.60;;
29938;SDS011;16799;50.844;5.304;2023-04-01T04:11:48;2.23;;;2.13;;
29938;SDS011;16799;50.844;5.304;2023-04-01T04:14:14;2.90;;;2.50;;
29938;SDS011;16799;50.844;5.304;2023-04-01T04:16:40;4.07;;;2.80;;
29938;SDS011;16799;50.844;5.304;2023-04-01T04:19:05;4.40;;;3.70;;
29938;SDS011;16799;50.844;5.304;2023-04-01T04:21:31;3.40;;;3.00;;
29938;SDS011;16799;50.844;5.304;2023-04-01T04:23:58;11.33;;;2.70;;
29938;SDS011;16799;50.844;5.304;2023-04-01T04:26:25;3.67;;;3.40;;
29938;SDS011;16799;50.844;5.304;2023-04-01T04:28:51;6.20;;;2.83;;
29938;SDS011;16799;50.844;5.304;2023-04-01T04:31:20;7.43;;;5.23;;
29938;SDS011;16799;50.844;5.304;2023-04-01T04:33:47;2.93;;;2.50;;
29938;SDS011;16799;50.844;5.304;2023-04-01T04:36:13;4.40;;;3.30;;
29938;SDS011;16799;50.844;5.304;2023-04-01T04:38:38;5.93;;;3.37;;
29938;SDS011;16799;50.844;5.304;2023-04-01T04:41:08;13.73;;;4.53;;
29938;SDS011;16799;50.844;5.304;2023-04-01T04:43:38;7.60;;;3.17;;
29938;SDS011;16799;50.844;5.304;2023-04-01T04:46:08;4.20;;;3.70;;
29938;SDS011;16799;50.844;5.304;2023-04-01T04:48:35;12.87;;;3.97;;
29938;SDS011;16799;50.844;5.304;2023-04-01T04:51:01;8.33;;;4.27;;
29938;SDS011;16799;50.844;5.304;2023-04-01T04:53:28;9.40;;;5.47;;
29938;SDS011;16799;50.844;5.304;2023-04-01T04:55:53;9.30;;;5.10;;
29938;SDS011;16799;50.844;5.304;2023-04-01T04:58:20;10.80;;;7.17;;
29938;SDS011;16799;50.844;5.304;2023-04-01T05:00:46;5.40;;;4.70;;
29938;SDS011;16799;50.844;5.304;2023-04-01T05:03:12;5.67;;;5.10;;
29938;SDS011;16799;50.844;5.304;2023-04-01T05:05:38;13.07;;;7.27;;
29938;SDS011;16799;50.844;5.304;2023-04-01T05:08:04;9.03;;;6.60;;
29938;SDS011;16799;50.844;5.304;2023-04-01T05:10:31;18.53;;;6.77;;
29938;SDS011;16799;50.844;5.304;2023-04-01T05:12:57;8.27;;;6.20;;
29938;SDS011;16799;50.844;5.304;2023-04-01T05:15:23;13.07;;;6.60;;
29938;SDS011;16799;50.844;5.304;2023-04-01T05:17:49;9.80;;;6.73;;
29938;SDS011;16799;50.844;5.304;2023-04-01T05:20:15;6.70;;;6.10;;
29938;SDS011;16799;50.844;5.304;2023-04-01T05:22:42;7.70;;;6.40;;
29938;SDS011;16799;50.844;5.304;2023-04-01T05:25:08;7.20;;;6.50;;
29938;SDS011;16799;50.844;5.304;2023-04-01T05:27:33;8.00;;;6.37;;
29938;SDS011;16799;50.844;5.304;2023-04-01T05:30:00;7.97;;;5.70;;
29938;SDS011;16799;50.844;5.304;2023-04-01T05:32:25;16.10;;;8.20;;
29938;SDS011;16799;50.844;5.304;2023-04-01T05:34:51;20.73;;;6.63;;
29938;SDS011;16799;50.844;5.304;2023-04-01T05:37:18;10.53;;;6.00;;
29938;SDS011;16799;50.844;5.304;2023-04-01T05:39:44;11.10;;;7.20;;
29938;SDS011;16799;50.844;5.304;2023-04-01T05:42:10;11.07;;;6.67;;
29938;SDS011;16799;50.844;5.304;2023-04-01T05:44:36;11.47;;;6.17;;
29938;SDS011;16799;50.844;5.304;2023-04-01T05:47:02;5.60;;;5.10;;
29938;SDS011;16799;50.844;5.304;2023-04-01T05:49:29;6.03;;;5.30;;
29938;SDS011;16799;50.844;5.304;2023-04-01T05:51:55;9.13;;;5.73;;
29938;SDS011;16799;50.844;5.304;2023-04-01T05:54:21;6.93;;;5.57;;
29938;SDS011;16799;50.844;5.304;2023-04-01T05:56:47;5.80;;;5.33;;
29938;SDS011;16799;50.844;5.304;2023-04-01T05:59:12;8.30;;;5.67;;
29938;SDS011;16799;50.844;5.304;2023-04-01T06:01:39;7.70;;;4.27;;
29938;SDS011;16799;50.844;5.304;2023-04-01T06:04:04;4.43;;;3.77;;
29938;SDS011;16799;50.844;5.304;2023-04-01T06:06:31;9.07;;;4.57;;
29938;SDS011;16799;50.844;5.304;2023-04-01T06:08:58;4.97;;;4.60;;
29938;SDS011;16799;50.844;5.304;2023-04-01T06:19:55;4.63;;;4.33;;
29938;SDS011;16799;50.844;5.304;2023-04-01T06:34:33;4.23;;;3.93;;
29938;SDS011;16799;50.844;5.304;2023-04-01T06:42:50;7.03;;;4.80;;
29938;SDS011;16799;50.844;5.304;2023-04-01T06:51:31;4.60;;;4.30;;
29938;SDS011;16799;50.844;5.304;2023-04-01T06:56:44;4.60;;;4.20;;
29938;SDS011;16799;50.844;5.304;2023-04-01T06:59:20;4.37;;;4.00;;
29938;SDS011;16799;50.844;5.304;2023-04-01T07:01:51;4.90;;;4.43;;
29938;SDS011;16799;50.844;5.304;2023-04-01T07:04:20;5.73;;;5.23;;
29938;SDS011;16799;50.844;5.304;2023-04-01T07:06:54;4.70;;;4.30;;
29938;SDS011;16799;50.844;5.304;2023-04-01T07:09:28;5.93;;;5.43;;
29938;SDS011;16799;50.844;5.304;2023-04-01T07:12:00;5.20;;;4.20;;
29938;SDS011;16799;50.844;5.304;2023-04-01T07:14:35;5.63;;;4.97;;
29938;SDS011;16799;50.844;5.304;2023-04-01T07:17:04;5.93;;;4.63;;
29938;SDS011;16799;50.844;5.304;2023-04-01T07:19:59;6.37;;;4.50;;
29938;SDS011;16799;50.844;5.304;2023-04-01T07:22:31;8.57;;;5.20;;
29938;SDS011;16799;50.844;5.304;2023-04-01T07:25:02;11.03;;;5.60;;
29938;SDS011;16799;50.844;5.304;2023-04-01T07:27:35;5.20;;;4.53;;
29938;SDS011;16799;50.844;5.304;2023-04-01T07:30:01;8.40;;;6.03;;
29938;SDS011;16799;50.844;5.304;2023-04-01T07:35:39;9.53;;;4.50;;
29938;SDS011;16799;50.844;5.304;2023-04-01T07:46:53;6.10;;;5.27;;
29938;SDS011;16799;50.844;5.304;2023-04-01T07:52:08;5.03;;;4.50;;
29938;SDS011;16799;50.844;5.304;2023-04-01T07:57:31;6.33;;;5.10;;
29938;SDS011;16799;50.844;5.304;2023-04-01T08:00:08;4.10;;;3.70;;
29938;SDS011;16799;50.844;5.304;2023-04-01T08:05:22;3.83;;;3.60;;
29938;SDS011;16799;50.844;5.304;2023-04-01T08:07:59;4.83;;;4.30;;
29938;SDS011;16799;50.844;5.304;2023-04-01T08:15:57;4.27;;;3.87;;
29938;SDS011;16799;50.844;5.304;2023-04-01T08:18:52;4.47;;;3.70;;
29938;SDS011;16799;50.844;5.304;2023-04-01T08:21:33;4.30;;;3.90;;
29938;SDS011;16799;50.844;5.304;2023-04-01T08:26:59;3.90;;;3.60;;
29938;SDS011;16799;50.844;5.304;2023-04-01T08:32:09;5.03;;;3.37;;
29938;SDS011;16799;50.844;5.304;2023-04-01T08:34:42;2.53;;;2.37;;
29938;SDS011;16799;50.844;5.304;2023-04-01T08:37:12;2.00;;;1.90;;
29938;SDS011;16799;50.844;5.304;2023-04-01T08:48:49;3.70;;;1.57;;
29938;SDS011;16799;50.844;5.304;2023-04-01T08:51:14;2.57;;;1.50;;
29938;SDS011;16799;50.844;5.304;2023-04-01T08:56:46;4.07;;;1.43;;
29938;SDS011;16799;50.844;5.304;2023-04-01T09:04:45;1.30;;;1.20;;
29938;SDS011;16799;50.844;5.304;2023-04-01T09:18:15;1.17;;;0.97;;
29938;SDS011;16799;50.844;5.304;2023-04-01T09:20:56;3.37;;;1.13;;
29938;SDS011;16799;50.844;5.304;2023-04-01T09:23:41;1.10;;;0.97;;
29938;SDS011;16799;50.844;5.304;2023-04-01T09:28:59;1.10;;;1.00;;
29938;SDS011;16799;50.844;5.304;2023-04-01T09:43:16;1.30;;;1.20;;
29938;SDS011;16799;50.844;5.304;2023-04-01T09:48:54;1.07;;;0.97;;
29938;SDS011;16799;50.844;5.304;2023-04-01T09:54:36;1.10;;;1.00;;
29938;SDS011;16799;50.844;5.304;2023-04-01T10:01:07;1.17;;;1.10;;
29938;SDS011;16799;50.844;5.304;2023-04-01T10:24:12;1.50;;;1.40;;
29938;SDS011;16799;50.844;5.304;2023-04-01T10:27:13;1.00;;;0.90;;
29938;SDS011;16799;50.844;5.304;2023-04-01T10:33:12;2.27;;;1.70;;
29938;SDS011;16799;50.844;5.304;2023-04-01T10:35:45;1.00;;;0.90;;
29938;SDS011;16799;50.844;5.304;2023-04-01T10:38:34;1.33;;;1.23;;
29938;SDS011;16799;50.844;5.304;2023-04-01T11:09:43;1.37;;;1.27;;
29938;SDS011;16799;50.844;5.304;2023-04-01T11:15:20;1.30;;;1.20;;
29938;SDS011;16799;50.844;5.304;2023-04-01T11:31:40;2.70;;;2.60;;
29938;SDS011;16799;50.844;5.304;2023-04-01T11:37:16;3.10;;;2.10;;
29938;SDS011;16799;50.844;5.304;2023-04-01T11:40:12;2.80;;;2.13;;
29938;SDS011;16799;50.844;5.304;2023-04-01T11:42:57;2.23;;;2.13;;
29938;SDS011;16799;50.844;5.304;2023-04-01T11:45:38;4.13;;;2.30;;
29938;SDS011;16799;50.844;5.304;2023-04-01T12:01:28;1.60;;;1.50;;
29938;SDS011;16799;50.844;5.304;2023-04-01T12:10:17;2.27;;;1.60;;
29938;SDS011;16799;50.844;5.304;2023-04-01T12:26:00;2.40;;;1.20;;
29938;SDS011;16799;50.844;5.304;2023-04-01T12:37:19;0.80;;;0.77;;
29938;SDS011;16799;50.844;5.304;2023-04-01T12:42:46;1.20;;;1.10;;
29938;SDS011;16799;50.844;5.304;2023-04-01T12:45:40;1.30;;;1.00;;
29938;SDS011;16799;50.844;5.304;2023-04-01T12:53:48;1.10;;;1.00;;
29938;SDS011;16799;50.844;5.304;2023-04-01T13:10:29;1.03;;;0.93;;
29938;SDS011;16799;50.844;5.304;2023-04-01T13:29:32;0.93;;;0.93;;
29938;SDS011;16799;50.844;5.304;2023-04-01T13:40:59;2.40;;;2.20;;
29938;SDS011;16799;50.844;5.304;2023-04-01T13:43:37;2.13;;;2.03;;
29938;SDS011;16799;50.844;5.304;2023-04-01T14:03:08;2.13;;;2.00;;
29938;SDS011;16799;50.844;5.304;2023-04-01T14:05:50;2.03;;;1.93;;
29938;SDS011;16799;50.844;5.304;2023-04-01T14:27:38;2.00;;;1.90;;
29938;SDS011;16799;50.844;5.304;2023-04-01T14:30:27;1.20;;;1.10;;
29938;SDS011;16799;50.844;5.304;2023-04-01T14:33:19;1.60;;;1.40;;
29938;SDS011;16799;50.844;5.304;2023-04-01T14:36:23;2.27;;;2.17;;
29938;SDS011;16799;50.844;5.304;2023-04-01T14:50:22;3.53;;;1.07;;
29938;SDS011;16799;50.844;5.304;2023-04-01T14:53:25;0.97;;;0.80;;
29938;SDS011;16799;50.844;5.304;2023-04-01T14:55:49;0.93;;;0.90;;
29938;SDS011;16799;50.844;5.304;2023-04-01T14:58:17;1.10;;;1.00;;
29938;SDS011;16799;50.844;5.304;2023-04-01T15:03:40;0.77;;;0.77;;
29938;SDS011;16799;50.844;5.304;2023-04-01T15:09:24;1.40;;;1.10;;
29938;SDS011;16799;50.844;5.304;2023-04-01T15:28:57;2.43;;;1.40;;
29938;SDS011;16799;50.844;5.304;2023-04-01T15:31:50;1.67;;;1.57;;
29938;SDS011;16799;50.844;5.304;2023-04-01T15:34:34;1.60;;;1.50;;
29938;SDS011;16799;50.844;5.304;2023-04-01T15:42:40;3.30;;;3.00;;
29938;SDS011;16799;50.844;5.304;2023-04-01T15:48:19;3.30;;;3.10;;
29938;SDS011;16799;50.844;5.304;2023-04-01T15:51:05;14.37;;;3.30;;
29938;SDS011;16799;50.844;5.304;2023-04-01T16:16:23;6.70;;;5.23;;
29938;SDS011;16799;50.844;5.304;2023-04-01T16:19:13;5.80;;;5.40;;
29938;SDS011;16799;50.844;5.304;2023-04-01T16:22:05;4.93;;;4.63;;
29938;SDS011;16799;50.844;5.304;2023-04-01T16:27:52;4.80;;;4.50;;
29938;SDS011;16799;50.844;5.304;2023-04-01T16:30:48;6.23;;;4.27;;
29938;SDS011;16799;50.844;5.304;2023-04-01T16:42:08;5.27;;;4.70;;
29938;SDS011;16799;50.844;5.304;2023-04-01T16:44:50;4.60;;;4.30;;
29938;SDS011;16799;50.844;5.304;2023-04-01T16:47:19;3.13;;;3.00;;
29938;SDS011;16799;50.844;5.304;2023-04-01T16:50:06;3.57;;;3.37;;
29938;SDS011;16799;50.844;5.304;2023-04-01T16:53:00;3.20;;;3.03;;
29938;SDS011;16799;50.844;5.304;2023-04-01T16:56:04;3.00;;;2.80;;
29938;SDS011;16799;50.844;5.304;2023-04-01T16:59:02;3.50;;;2.80;;
29938;SDS011;16799;50.844;5.304;2023-04-01T17:04:17;2.17;;;2.07;;
29938;SDS011;16799;50.844;5.304;2023-04-01T17:07:01;2.20;;;2.10;;
29938;SDS011;16799;50.844;5.304;2023-04-01T17:18:05;6.70;;;2.47;;
29938;SDS011;16799;50.844;5.304;2023-04-01T17:20:50;2.43;;;2.23;;
29938;SDS011;16799;50.844;5.304;2023-04-01T17:23:32;4.00;;;3.27;;
29938;SDS011;16799;50.844;5.304;2023-04-01T17:37:24;2.70;;;2.50;;
29938;SDS011;16799;50.844;5.304;2023-04-01T17:43:09;3.87;;;3.50;;
29938;SDS011;16799;50.844;5.304;2023-04-01T17:48:21;3.30;;;3.10;;
29938;SDS011;16799;50.844;5.304;2023-04-01T17:51:02;2.50;;;2.30;;
29938;SDS011;16799;50.844;5.304;2023-04-01T17:54:01;2.90;;;2.80;;
29938;SDS011;16799;50.844;5.304;2023-04-01T17:56:45;2.70;;;2.50;;
29938;SDS011;16799;50.844;5.304;2023-04-01T17:59:33;2.63;;;2.43;;
29938;SDS011;16799;50.844;5.304;2023-04-01T18:07:45;4.60;;;4.20;;
29938;SDS011;16799;50.844;5.304;2023-04-01T18:16:43;4.33;;;3.53;;
29938;SDS011;16799;50.844;5.304;2023-04-01T18:22:10;4.60;;;4.30;;
29938;SDS011;16799;50.844;5.304;2023-04-01T18:27:16;9.60;;;5.33;;
29938;SDS011;16799;50.844;5.304;2023-04-01T18:29:49;4.20;;;3.80;;
29938;SDS011;16799;50.844;5.304;2023-04-01T18:32:34;4.67;;;4.37;;
29938;SDS011;16799;50.844;5.304;2023-04-01T18:38:33;7.37;;;6.77;;
29938;SDS011;16799;50.844;5.304;2023-04-01T18:41:12;5.43;;;4.97;;
29938;SDS011;16799;50.844;5.304;2023-04-01T18:47:00;7.27;;;6.67;;
29938;SDS011;16799;50.844;5.304;2023-04-01T18:57:27;8.37;;;7.87;;
29938;SDS011;16799;50.844;5.304;2023-04-01T19:02:45;7.93;;;7.33;;
29938;SDS011;16799;50.844;5.304;2023-04-01T19:05:26;12.43;;;7.80;;
29938;SDS011;16799;50.844;5.304;2023-04-01T19:16:28;9.07;;;8.30;;
29938;SDS011;16799;50.844;5.304;2023-04-01T19:22:24;9.60;;;8.60;;
29938;SDS011;16799;50.844;5.304;2023-04-01T19:27:51;12.90;;;9.57;;
29938;SDS011;16799;50.844;5.304;2023-04-01T19:42:41;12.47;;;10.90;;
29938;SDS011;16799;50.844;5.304;2023-04-01T19:54:01;14.80;;;12.43;;
29938;SDS011;16799;50.844;5.304;2023-04-01T19:56:58;16.60;;;12.07;;
29938;SDS011;16799;50.844;5.304;2023-04-01T20:04:34;14.57;;;11.73;;
29938;SDS011;16799;50.844;5.304;2023-04-01T20:12:40;12.73;;;10.90;;
29938;SDS011;16799;50.844;5.304;2023-04-01T20:15:35;14.63;;;12.80;;
29938;SDS011;16799;50.844;5.304;2023-04-01T20:20:40;16.97;;;12.83;;
29938;SDS011;16799;50.844;5.304;2023-04-01T20:23:40;15.90;;;12.30;;
29938;SDS011;16799;50.844;5.304;2023-04-01T20:26:08;19.20;;;13.00;;
29938;SDS011;16799;50.844;5.304;2023-04-01T20:37:38;16.87;;;13.40;;
29938;SDS011;16799;50.844;5.304;2023-04-01T20:40:33;20.77;;;15.20;;
29938;SDS011;16799;50.844;5.304;2023-04-01T20:43:22;20.53;;;14.33;;
29938;SDS011;16799;50.844;5.304;2023-04-01T20:48:54;23.53;;;16.00;;
29938;SDS011;16799;50.844;5.304;2023-04-01T20:51:24;23.03;;;15.13;;
29938;SDS011;16799;50.844;5.304;2023-04-01T21:02:29;24.60;;;16.23;;
29938;SDS011;16799;50.844;5.304;2023-04-01T21:19:03;21.43;;;16.40;;
29938;SDS011;16799;50.844;5.304;2023-04-01T21:41:27;26.90;;;16.17;;
29938;SDS011;16799;50.844;5.304;2023-04-01T21:55:32;13.50;;;11.30;;
29938;SDS011;16799;50.844;5.304;2023-04-01T22:01:45;12.53;;;10.90;;
29938;SDS011;16799;50.844;5.304;2023-04-01T22:07:02;19.67;;;13.20;;
29938;SDS011;16799;50.844;5.304;2023-04-01T22:09:45;18.43;;;12.50;;
29938;SDS011;16799;50.844;5.304;2023-04-01T22:12:35;18.37;;;11.80;;
29938;SDS011;16799;50.844;5.304;2023-04-01T22:23:16;22.90;;;13.93;;
29938;SDS011;16799;50.844;5.304;2023-04-01T22:28:20;20.47;;;13.20;;
29938;SDS011;16799;50.844;5.304;2023-04-01T22:30:55;17.10;;;11.87;;
29938;SDS011;16799;50.844;5.304;2023-04-01T22:52:58;13.70;;;11.17;;
29938;SDS011;16799;50.844;5.304;2023-04-01T22:55:53;17.83;;;11.70;;
29938;SDS011;16799;50.844;5.304;2023-04-01T22:58:38;18.60;;;12.27;;
29938;SDS011;16799;50.844;5.304;2023-04-01T23:01:15;16.43;;;10.93;;
29938;SDS011;16799;50.844;5.304;2023-04-01T23:03:46;14.67;;;8.33;;
29938;SDS011;16799;50.844;5.304;2023-04-01T23:06:28;8.47;;;7.57;;
29938;SDS011;16799;50.844;5.304;2023-04-01T23:10:02;12.13;;;9.97;;
29938;SDS011;16799;50.844;5.304;2023-04-01T23:11:59;16.30;;;11.50;;
29938;SDS011;16799;50.844;5.304;2023-04-01T23:14:43;11.90;;;10.67;;
29938;SDS011;16799;50.844;5.304;2023-04-01T23:17:39;19.40;;;13.43;;
29938;SDS011;16799;50.844;5.304;2023-04-01T23:28:44;19.60;;;12.20;;
29938;SDS011;16799;50.844;5.304;2023-04-01T23:31:33;14.50;;;12.20;;
29938;SDS011;16799;50.844;5.304;2023-04-01T23:37:00;19.70;;;14.47;;
29938;SDS011;16799;50.844;5.304;2023-04-01T23:39:29;22.90;;;15.87;;
29938;SDS011;16799;50.844;5.304;2023-04-01T23:44:53;16.30;;;12.73;;
29938;SDS011;16799;50.844;5.304;2023-04-01T23:47:31;21.17;;;14.10;;
29938;SDS011;16799;50.844;5.304;2023-04-01T23:50:01;15.83;;;12.57;;
29938;SDS011;16799;50.844;5.304;2023-04-01T23:52:36;16.50;;;13.63;;
29938;SDS011;16799;50.844;5.304;2023-04-01T23:57:59;18.63;;;13.87;;
